Terminal Aerodrome Forecast
Issued by NWS

Home | Current Version | Previous Version | Graphics & Text | Print | Product List | Glossary On
Versions: 1 2 3 4 5 6 7 8 9 10 11 12 13 14 15 16 17 18 19 20 21 22 23 24
000
FTUS43 KMPX 281504 AAA
TAFAXN
TAF AMD
KAXN 281504Z 2815/2912 24014G21KT P6SM SCT010 SCT020 OVC150
      TEMPO 2815/2818 BKN020
     FM282100 28016G25KT P6SM BKN040
     FM290300 26015G22KT P6SM SCT250=

USA.gov is the U.S. government's official web portal to all federal, state and local government web resources and services.